Terminal Aerodrome Forecast
Issued by NWS

Home | Current Version | Previous Version | Text Only | Print | Product List | Glossary On
Versions: 1 2 3 4 5 6 7 8 9 10 11 12 13 14 15 16 17 18 19 20 21 22 23 24 25 26 27 28
000
FTPA31 PHFO 031700
TAFKOA
TAF
PHKO 031731Z 0318/0418 36006KT P6SM FEW030
     FM032000 26009KT P6SM SCT030 BKN060
     FM040500 14006KT P6SM SCT030 SCT060
     FM040900 07005KT P6SM FEW030=

USA.gov is the U.S. government's official web portal to all federal, state and local government web resources and services.